< Typhoon 202107 2021 Season Typhoon 202109 >
Typhoon 202108 (NEPARTAK)
General InformationDetailed Track InformationTrack Information on Google MapsForecast History on Google MapsAccess Analytics MapList of All Images || NewsDisaster Info.WeblogTrackbackTyphoon FrontTwiphoonTyphoon Now!Typhoon ImaginationJMA Disaster Info. XMLResourceGoogle EarthGE AnimationAtom FeedGeoJSON
Detalied Best Track Wind (Time Zone = UTC)
Year Month Day Hour Lat. Long. Wind (kt) Gust (kt) Direc. of Major Storm Axis Radius of Major Storm Axis (nm) Radius of Minor Storm Axis (nm) Direc. of Major Gale Axis Radius of Major Gale Axis (nm) Radius of Minor Gale Axis (nm) Image
2021 7 22 12 21.5 146.1 0 0 - - - - - - Image
2021 7 22 18 21.8 147.0 0 0 - - - - - - Image
2021 7 23 00 22.4 147.9 0 0 - - - - - - Image
2021 7 23 06 23.4 148.5 0 0 - - - - - - Image
2021 7 23 12 24.2 148.8 35 0 - - - E 270 150 Image
2021 7 23 18 25.1 149.3 35 0 - - - E 270 150 Image
2021 7 24 00 25.4 149.7 35 0 - - - SE 325 210 Image
2021 7 24 06 26.1 150.1 35 0 - - - SE 325 210 Image
2021 7 24 12 27.6 150.6 40 0 - - - SE 350 210 Image
2021 7 24 18 28.4 150.6 40 0 - - - SE 350 210 Image
2021 7 25 00 29.6 150.7 40 0 - - - SE 375 210 Image
2021 7 25 06 30.2 150.4 40 0 - - - SE 375 210 Image
2021 7 25 12 31.1 149.8 40 0 - - - E 375 210 Image
2021 7 25 18 32.8 149.3 40 0 - - - E 325 210 Image
2021 7 26 00 33.9 147.7 40 0 - - - E 325 210 Image
2021 7 26 06 34.5 145.5 40 0 - - - E 325 210 Image
2021 7 26 12 34.4 143.7 40 0 - - - NE 270 210 Image
2021 7 26 18 34.3 142.9 40 0 - - - NE 270 210 Image
2021 7 27 00 34.9 142.6 40 0 - - - symmetric 210 210 Image
2021 7 27 06 35.7 142.4 40 0 - - - symmetric 210 210 Image
2021 7 27 12 36.6 142.4 35 0 - - - symmetric 150 150 Image
2021 7 27 18 37.8 142.2 35 0 - - - symmetric 150 150 Image
2021 7 27 20 38.2 141.7 35 0 - - - symmetric 150 150 Image
2021 7 28 00 39.2 141.4 35 0 - - - NE 150 120 Image
2021 7 28 06 40.4 139.8 0 0 - - - - - - Image
2021 7 28 12 40.6 138.1 0 0 - - - - - - Image
2021 7 28 18 40.7 137.6 0 0 - - - - - - Image
2021 7 29 00 40.7 136.9 0 0 - - - - - - Image
2021 7 29 06 40.7 136.6 0 0 - - - - - - Image
2021 7 29 12 40.8 136.3 0 0 - - - - - - Image
2021 7 29 18 40.8 136.2 0 0 - - - - - - Image
2021 7 30 00 40.8 135.9 0 0 - - - - - - Image
2021 7 30 06 40.8 135.7 0 0 - - - - - - Image
2021 7 30 12 40.8 135.4 0 0 - - - - - - Image
2021 7 30 18 40.8 135.2 0 0 - - - - - - Image
2021 7 31 00 40.7 135.0 0 0 - - - - - - Image
2021 7 31 06 40.9 133.9 0 0 - - - - - - Image
Japan Meteorological Agency Best Track Data | Correction Date : 2021-11-02
< Typhoon 202107 2021 Season Typhoon 202109 >

Help